Time;durP1;ratioP1;P1;durP2;ratioP2;P2;SDS_P1;SDS_P2;PMS_P1;PMS_P2;Temp;Humidity;BMP_temperature;BMP_pressure;BME280_temperature;BME280_humidity;BME280_pressure;Samples;Min_cycle;Max_cycle;Signal;HPM_P1;HPM_P2
2022/12/30 00:01:21;;;;;;;3.47;2.10;;;;;;;;;;6265081;28;20273;-82
2022/12/30 00:04:27;;;;;;;7.27;2.20;;;;;;;;;;6264904;28;20309;-82
2022/12/30 00:07:34;;;;;;;6.37;2.10;;;;;;;;;;6264586;28;20273;-83
2022/12/30 00:10:39;;;;;;;3.13;1.83;;;;;;;;;;6264285;28;20274;-81
2022/12/30 00:34:09;;;;;;;4.63;1.87;;;;;;;;;;6288759;28;20287;-81
2022/12/30 00:37:15;;;;;;;3.80;1.57;;;;;;;;;;6288671;28;20269;-82
2022/12/30 00:40:21;;;;;;;4.13;2.03;;;;;;;;;;6288414;28;20445;-82
2022/12/30 00:43:26;;;;;;;3.93;1.90;;;;;;;;;;6288375;28;20285;-82
2022/12/30 00:46:31;;;;;;;1.80;1.70;;;;;;;;;;6288223;28;20288;-82
2022/12/30 00:56:24;;;;;;;3.70;1.70;;;;;;;;;;6286856;28;20269;-83
2022/12/30 00:59:29;;;;;;;5.20;1.80;;;;;;;;;;6287632;28;20361;-82
2022/12/30 01:02:34;;;;;;;4.13;1.83;;;;;;;;;;6288015;28;20274;-83
2022/12/30 01:05:40;;;;;;;3.43;1.93;;;;;;;;;;6286489;28;20318;-83
2022/12/30 01:08:45;;;;;;;2.67;1.70;;;;;;;;;;6286167;28;20276;-82
2022/12/30 01:15:12;;;;;;;1.70;1.63;;;;;;;;;;6262916;28;20274;-83
2022/12/30 01:18:17;;;;;;;4.33;1.60;;;;;;;;;;6245046;28;20266;-83
2022/12/30 01:21:23;;;;;;;5.23;1.87;;;;;;;;;;6262413;28;20545;-83
2022/12/30 01:24:28;;;;;;;6.27;1.80;;;;;;;;;;6262102;28;20439;-83
2022/12/30 01:27:35;;;;;;;2.33;2.13;;;;;;;;;;6262140;28;20273;-83
2022/12/30 01:30:40;;;;;;;6.50;1.97;;;;;;;;;;6244927;28;20274;-82
2022/12/30 01:33:45;;;;;;;1.53;1.50;;;;;;;;;;6261961;28;20271;-83
2022/12/30 01:36:50;;;;;;;2.03;1.60;;;;;;;;;;6262300;28;20275;-82
2022/12/30 01:39:55;;;;;;;3.50;1.57;;;;;;;;;;6262063;28;20273;-83
2022/12/30 01:43:02;;;;;;;2.83;1.60;;;;;;;;;;6261687;28;20271;-82
2022/12/30 01:46:07;;;;;;;3.37;1.60;;;;;;;;;;6262079;28;20286;-81
2022/12/30 01:49:13;;;;;;;6.50;1.70;;;;;;;;;;6261712;28;20278;-83
2022/12/30 01:52:20;;;;;;;3.23;1.80;;;;;;;;;;6262148;28;20266;-82
2022/12/30 01:55:29;;;;;;;4.90;1.90;;;;;;;;;;6261949;28;20277;-82
2022/12/30 01:58:38;;;;;;;4.47;1.67;;;;;;;;;;6261171;28;20273;-82
2022/12/30 02:01:47;;;;;;;3.20;1.43;;;;;;;;;;6244545;28;20290;-81
2022/12/30 02:04:57;;;;;;;9.10;1.60;;;;;;;;;;6303325;23;20309;-87
2022/12/30 02:08:23;;;;;;;1.33;1.23;;;;;;;;;;6287599;28;20292;-85
2022/12/30 02:15:08;;;;;;;1.20;1.20;;;;;;;;;;6298417;28;20289;-87
2022/12/30 02:18:42;;;;;;;3.00;1.30;;;;;;;;;;6312374;28;20268;-87
2022/12/30 02:22:01;;;;;;;4.33;1.60;;;;;;;;;;6295518;28;20265;-85
2022/12/30 02:25:31;;;;;;;4.70;1.30;;;;;;;;;;6263626;28;20298;-85
2022/12/30 02:29:27;;;;;;;2.20;1.30;;;;;;;;;;6296690;28;20265;-86
2022/12/30 02:32:45;;;;;;;2.03;1.50;;;;;;;;;;6274859;28;20273;-86
2022/12/30 02:35:58;;;;;;;6.23;1.30;;;;;;;;;;6296390;28;20274;-86
2022/12/30 02:39:13;;;;;;;1.30;1.20;;;;;;;;;;6280485;28;20277;-86
2022/12/30 02:45:52;;;;;;;2.07;1.00;;;;;;;;;;6282399;28;20301;-83
2022/12/30 02:49:24;;;;;;;3.70;1.23;;;;;;;;;;6282529;28;20274;-86
2022/12/30 02:52:33;;;;;;;3.20;1.27;;;;;;;;;;6313356;28;20298;-86
2022/12/30 02:55:41;;;;;;;3.23;1.10;;;;;;;;;;6278819;28;20281;-86
2022/12/30 03:03:56;;;;;;;4.13;1.30;;;;;;;;;;6295561;28;20277;-85
2022/12/30 03:06:29;;;;;;;4.60;1.00;;;;;;;;;;6262594;28;20281;-86
2022/12/30 03:13:44;;;;;;;1.73;1.00;;;;;;;;;;6264546;28;20276;-86
2022/12/30 03:16:55;;;;;;;2.53;1.00;;;;;;;;;;6231521;28;20275;-84
2022/12/30 03:20:05;;;;;;;2.93;1.10;;;;;;;;;;6260254;28;20274;-86
2022/12/30 03:27:12;;;;;;;3.53;1.17;;;;;;;;;;6234209;28;20295;-86
2022/12/30 03:30:18;;;;;;;3.13;1.30;;;;;;;;;;6250434;28;20305;-86
2022/12/30 03:37:35;;;;;;;1.93;1.20;;;;;;;;;;6255963;28;20282;-85
2022/12/30 03:40:49;;;;;;;3.80;1.10;;;;;;;;;;6266985;28;20471;-85
2022/12/30 03:43:59;;;;;;;2.57;1.23;;;;;;;;;;6265242;28;20279;-85
2022/12/30 03:47:21;;;;;;;4.30;1.20;;;;;;;;;;6253735;28;20484;-86
2022/12/30 03:54:02;;;;;;;5.87;1.50;;;;;;;;;;6236781;28;20273;-86
2022/12/30 03:57:18;;;;;;;4.63;1.20;;;;;;;;;;6265910;28;20336;-86
2022/12/30 04:00:26;;;;;;;5.10;1.20;;;;;;;;;;6266759;28;20273;-85
2022/12/30 04:07:19;;;;;;;2.23;1.03;;;;;;;;;;6300569;28;20337;-87
2022/12/30 04:10:43;;;;;;;2.30;1.50;;;;;;;;;;6270379;28;20323;-86
2022/12/30 04:14:00;;;;;;;1.17;1.10;;;;;;;;;;6262738;28;20365;-85
2022/12/30 04:24:37;;;;;;;3.00;1.20;;;;;;;;;;6296824;28;20272;-86
2022/12/30 04:28:06;;;;;;;5.00;1.47;;;;;;;;;;6288313;28;20292;-86
2022/12/30 04:31:30;;;;;;;2.30;1.47;;;;;;;;;;6276928;28;20221;-85
2022/12/30 04:34:53;;;;;;;2.30;1.13;;;;;;;;;;6287217;28;20244;-85
2022/12/30 04:38:14;;;;;;;4.93;1.50;;;;;;;;;;6273814;28;20308;-86
2022/12/30 04:41:23;;;;;;;2.60;1.23;;;;;;;;;;6258721;28;20274;-85
2022/12/30 04:44:34;;;;;;;2.00;1.33;;;;;;;;;;6302415;28;20222;-84
2022/12/30 04:47:55;;;;;;;6.20;1.50;;;;;;;;;;6282267;28;20290;-87
2022/12/30 04:51:06;;;;;;;1.33;1.20;;;;;;;;;;6292307;28;20444;-86
2022/12/30 04:54:14;;;;;;;5.10;1.50;;;;;;;;;;6291471;28;20282;-86
2022/12/30 04:57:23;;;;;;;6.90;1.27;;;;;;;;;;6290190;28;20444;-85
2022/12/30 05:00:45;;;;;;;2.23;1.40;;;;;;;;;;6260457;28;20538;-86
2022/12/30 05:11:12;;;;;;;5.50;1.30;;;;;;;;;;6278153;28;20450;-84
2022/12/30 05:14:43;;;;;;;3.97;1.70;;;;;;;;;;6271761;28;20272;-84
2022/12/30 05:18:18;;;;;;;5.30;1.20;;;;;;;;;;6302846;28;20435;-86
2022/12/30 05:21:27;;;;;;;1.50;1.40;;;;;;;;;;6283642;28;20271;-86
2022/12/30 05:28:12;;;;;;;2.80;1.60;;;;;;;;;;6300147;28;20287;-85
2022/12/30 05:31:30;;;;;;;4.83;1.43;;;;;;;;;;6301495;28;20355;-85
2022/12/30 05:34:37;;;;;;;1.63;1.30;;;;;;;;;;6284966;28;20281;-85
2022/12/30 05:38:01;;;;;;;1.73;1.50;;;;;;;;;;6301943;28;20288;-86
2022/12/30 05:41:21;;;;;;;2.17;1.40;;;;;;;;;;6302182;28;20266;-86
2022/12/30 05:44:43;;;;;;;1.97;1.50;;;;;;;;;;6303904;28;20560;-85
2022/12/30 05:47:55;;;;;;;8.33;1.80;;;;;;;;;;6286714;28;20555;-85
2022/12/30 05:51:19;;;;;;;4.13;1.63;;;;;;;;;;6295027;28;20275;-85
2022/12/30 05:54:29;;;;;;;5.07;1.70;;;;;;;;;;6323284;28;20270;-86
2022/12/30 05:57:44;;;;;;;5.17;1.70;;;;;;;;;;6292144;28;20234;-85
2022/12/30 06:05:10;;;;;;;4.23;1.53;;;;;;;;;;6298073;28;20305;-85
2022/12/30 06:08:20;;;;;;;6.00;1.70;;;;;;;;;;6280912;28;20341;-87
2022/12/30 06:11:40;;;;;;;4.50;2.03;;;;;;;;;;6299134;28;20282;-86
2022/12/30 06:14:53;;;;;;;5.73;1.73;;;;;;;;;;6308887;28;20269;-86
2022/12/30 06:18:00;;;;;;;3.27;1.63;;;;;;;;;;6274430;28;20268;-86
2022/12/30 06:21:08;;;;;;;4.00;2.20;;;;;;;;;;6273007;28;20274;-86
2022/12/30 06:24:14;;;;;;;5.23;1.70;;;;;;;;;;6287785;28;20434;-86
2022/12/30 06:27:21;;;;;;;8.20;2.07;;;;;;;;;;6270085;28;20288;-86
2022/12/30 06:30:29;;;;;;;6.53;1.70;;;;;;;;;;6270630;28;20280;-88
2022/12/30 06:33:38;;;;;;;4.97;2.10;;;;;;;;;;6288204;28;20293;-86
2022/12/30 06:36:44;;;;;;;12.17;2.10;;;;;;;;;;6289664;28;20252;-85
2022/12/30 06:39:51;;;;;;;5.33;1.90;;;;;;;;;;6289926;28;20310;-86
2022/12/30 06:42:57;;;;;;;10.90;2.17;;;;;;;;;;6290497;28;20561;-86
2022/12/30 06:46:06;;;;;;;6.70;1.73;;;;;;;;;;6272406;28;20268;-85
2022/12/30 06:49:14;;;;;;;8.47;2.30;;;;;;;;;;6298911;28;20282;-86
2022/12/30 06:55:47;;;;;;;9.03;2.00;;;;;;;;;;6284303;28;20240;-86
2022/12/30 06:58:54;;;;;;;8.13;1.90;;;;;;;;;;6284494;28;20236;-87
2022/12/30 07:02:01;;;;;;;4.40;1.87;;;;;;;;;;6284047;28;20311;-85
2022/12/30 07:05:09;;;;;;;7.03;2.00;;;;;;;;;;6297477;28;20257;-85
2022/12/30 07:08:16;;;;;;;7.83;2.50;;;;;;;;;;6259261;28;20288;-86
2022/12/30 07:11:23;;;;;;;12.17;2.53;;;;;;;;;;6268464;28;20258;-87
2022/12/30 07:14:29;;;;;;;8.47;2.00;;;;;;;;;;6251942;28;20257;-86
2022/12/30 07:17:41;;;;;;;12.13;2.23;;;;;;;;;;6234782;28;20274;-86
2022/12/30 07:20:49;;;;;;;4.80;1.97;;;;;;;;;;6251241;28;20277;-85
2022/12/30 07:23:56;;;;;;;4.37;2.00;;;;;;;;;;6235436;28;20274;-86
2022/12/30 07:27:03;;;;;;;12.17;2.30;;;;;;;;;;6251025;28;20274;-86
2022/12/30 07:30:13;;;;;;;10.80;2.00;;;;;;;;;;6249872;28;20274;-85
2022/12/30 07:33:21;;;;;;;13.73;2.30;;;;;;;;;;6256924;28;20248;-86
2022/12/30 07:36:26;;;;;;;9.03;2.30;;;;;;;;;;6269409;28;20271;-85
2022/12/30 07:39:34;;;;;;;8.43;2.73;;;;;;;;;;6250162;28;20271;-86
2022/12/30 07:42:41;;;;;;;4.53;2.30;;;;;;;;;;6251501;28;20412;-86
2022/12/30 07:45:54;;;;;;;6.80;2.00;;;;;;;;;;6236111;28;20305;-86
2022/12/30 07:49:04;;;;;;;7.53;2.07;;;;;;;;;;6250418;28;20301;-87
2022/12/30 07:52:12;;;;;;;7.90;2.10;;;;;;;;;;6251202;28;20458;-85
2022/12/30 07:55:18;;;;;;;8.20;1.90;;;;;;;;;;6250608;28;20262;-86
2022/12/30 07:58:25;;;;;;;9.83;2.00;;;;;;;;;;6269792;28;20274;-87
2022/12/30 08:01:32;;;;;;;12.53;2.97;;;;;;;;;;6235308;28;20274;-85
2022/12/30 08:04:40;;;;;;;2.73;1.87;;;;;;;;;;6276301;28;20308;-86
2022/12/30 08:07:57;;;;;;;12.57;2.50;;;;;;;;;;6316758;28;20327;-86
2022/12/30 08:11:06;;;;;;;10.20;2.43;;;;;;;;;;6299756;28;20270;-86
2022/12/30 08:14:14;;;;;;;7.00;2.10;;;;;;;;;;6291362;28;20258;-86
2022/12/30 08:17:21;;;;;;;8.57;2.50;;;;;;;;;;6259227;28;20274;-88
2022/12/30 08:20:31;;;;;;;6.30;2.30;;;;;;;;;;6276133;28;20262;-86
2022/12/30 08:23:39;;;;;;;6.00;2.13;;;;;;;;;;6293260;28;20270;-85
2022/12/30 08:26:45;;;;;;;12.43;2.40;;;;;;;;;;6276642;28;20267;-85
2022/12/30 08:29:51;;;;;;;11.87;2.73;;;;;;;;;;6291478;28;20297;-86
2022/12/30 08:32:58;;;;;;;8.57;2.30;;;;;;;;;;6274621;28;20273;-86
2022/12/30 08:36:08;;;;;;;11.20;2.03;;;;;;;;;;6257879;28;20268;-86
2022/12/30 08:39:16;;;;;;;8.97;2.00;;;;;;;;;;6275648;28;20261;-87
2022/12/30 08:42:21;;;;;;;12.50;2.57;;;;;;;;;;6274351;28;20264;-87
2022/12/30 08:45:28;;;;;;;8.00;2.73;;;;;;;;;;6293994;28;20263;-85
2022/12/30 08:48:34;;;;;;;9.40;2.40;;;;;;;;;;6292633;28;20280;-86
2022/12/30 08:51:43;;;;;;;8.87;2.40;;;;;;;;;;6256422;28;20274;-87
2022/12/30 08:54:50;;;;;;;14.63;2.27;;;;;;;;;;6272131;28;20440;-87
2022/12/30 08:57:57;;;;;;;11.20;2.17;;;;;;;;;;6274219;28;20570;-85
2022/12/30 09:01:09;;;;;;;6.97;2.40;;;;;;;;;;6256659;28;20362;-87
2022/12/30 09:04:17;;;;;;;10.97;2.53;;;;;;;;;;6259203;28;20297;-87
2022/12/30 09:07:24;;;;;;;6.07;2.10;;;;;;;;;;6278137;28;20282;-85
2022/12/30 09:10:58;;;;;;;6.03;2.43;;;;;;;;;;6262423;28;20305;-87
2022/12/30 09:14:07;;;;;;;6.40;2.30;;;;;;;;;;6279420;28;20271;-85
2022/12/30 09:17:15;;;;;;;8.40;2.13;;;;;;;;;;6302504;28;20229;-86
2022/12/30 09:20:21;;;;;;;3.73;2.00;;;;;;;;;;6319529;28;20226;-86
2022/12/30 09:23:30;;;;;;;11.70;2.27;;;;;;;;;;6285905;28;20236;-87
2022/12/30 09:26:37;;;;;;;4.60;2.13;;;;;;;;;;6311117;28;20270;-85
2022/12/30 09:29:43;;;;;;;3.13;1.90;;;;;;;;;;6272264;28;20293;-87
2022/12/30 09:32:51;;;;;;;10.70;2.40;;;;;;;;;;6288697;28;20494;-87
2022/12/30 09:35:58;;;;;;;9.20;2.30;;;;;;;;;;6289100;28;20267;-87
2022/12/30 09:39:10;;;;;;;7.67;2.13;;;;;;;;;;6272389;28;20274;-87
2022/12/30 09:45:50;;;;;;;13.97;2.40;;;;;;;;;;6271701;28;20278;-86
2022/12/30 09:49:00;;;;;;;6.97;2.40;;;;;;;;;;6289770;28;20439;-86
2022/12/30 09:52:12;;;;;;;4.00;2.20;;;;;;;;;;6304217;28;20434;-86
2022/12/30 09:55:24;;;;;;;10.83;2.30;;;;;;;;;;6290253;28;20286;-87
2022/12/30 09:58:34;;;;;;;9.27;1.93;;;;;;;;;;6288883;28;20262;-88
2022/12/30 10:01:43;;;;;;;10.73;2.47;;;;;;;;;;6305252;28;20313;-87
2022/12/30 10:04:50;;;;;;;5.20;2.00;;;;;;;;;;6287705;28;20305;-87
2022/12/30 10:08:20;;;;;;;9.50;2.40;;;;;;;;;;6287493;28;20433;-87
2022/12/30 10:11:40;;;;;;;8.43;2.50;;;;;;;;;;6288214;28;20546;-87
2022/12/30 10:14:54;;;;;;;8.97;2.10;;;;;;;;;;6289038;28;20277;-87
2022/12/30 10:18:27;;;;;;;4.50;1.93;;;;;;;;;;6271127;28;20376;-87
2022/12/30 10:21:43;;;;;;;6.83;2.17;;;;;;;;;;6289071;28;20272;-87
2022/12/30 10:24:59;;;;;;;7.40;3.40;;;;;;;;;;6273058;28;20278;-86
2022/12/30 10:28:12;;;;;;;8.87;2.30;;;;;;;;;;6275357;28;20267;-86
2022/12/30 10:31:21;;;;;;;3.90;2.10;;;;;;;;;;6277060;28;20286;-85
2022/12/30 10:34:30;;;;;;;8.33;2.43;;;;;;;;;;6276308;28;20282;-86
2022/12/30 10:37:39;;;;;;;4.43;1.90;;;;;;;;;;6290469;28;20258;-87
2022/12/30 10:40:53;;;;;;;6.10;2.00;;;;;;;;;;6270782;28;20278;-86
2022/12/30 10:44:11;;;;;;;11.30;2.10;;;;;;;;;;6304618;28;20258;-87
2022/12/30 10:47:33;;;;;;;5.67;1.93;;;;;;;;;;6270669;28;20381;-86
2022/12/30 10:50:43;;;;;;;4.23;1.87;;;;;;;;;;6304305;28;20461;-87
2022/12/30 10:53:52;;;;;;;7.17;2.33;;;;;;;;;;6270217;28;20282;-86
2022/12/30 10:56:59;;;;;;;7.07;2.13;;;;;;;;;;6287553;28;20265;-88
2022/12/30 11:00:09;;;;;;;8.47;2.13;;;;;;;;;;6288637;28;20270;-86
2022/12/30 11:03:26;;;;;;;6.80;1.87;;;;;;;;;;6289425;28;20298;-87
2022/12/30 11:06:32;;;;;;;6.13;2.10;;;;;;;;;;6285724;28;20269;-87
2022/12/30 11:09:40;;;;;;;8.90;2.27;;;;;;;;;;6284192;28;20285;-87
2022/12/30 11:16:37;;;;;;;5.10;2.07;;;;;;;;;;6275956;28;20276;-87
2022/12/30 11:19:44;;;;;;;7.57;1.90;;;;;;;;;;6293721;28;20264;-88
2022/12/30 11:22:49;;;;;;;6.53;1.77;;;;;;;;;;6310380;28;20265;-87
2022/12/30 11:25:55;;;;;;;5.87;2.40;;;;;;;;;;6293020;28;20280;-86
2022/12/30 11:29:06;;;;;;;3.03;2.13;;;;;;;;;;6292862;28;20277;-87
2022/12/30 11:32:14;;;;;;;3.37;2.20;;;;;;;;;;6318247;28;20229;-86
2022/12/30 11:35:37;;;;;;;5.40;2.10;;;;;;;;;;6308391;28;20230;-88
2022/12/30 11:38:46;;;;;;;4.73;1.73;;;;;;;;;;6280165;28;20455;-87
2022/12/30 11:42:01;;;;;;;3.60;1.90;;;;;;;;;;6294442;28;20325;-87
2022/12/30 11:45:17;;;;;;;4.23;1.90;;;;;;;;;;6294249;28;20270;-87
2022/12/30 11:48:31;;;;;;;8.23;1.63;;;;;;;;;;6276350;28;20268;-87
2022/12/30 11:51:44;;;;;;;8.50;1.87;;;;;;;;;;6297494;28;20288;-87
2022/12/30 11:54:57;;;;;;;4.50;1.80;;;;;;;;;;6281293;28;20273;-87
2022/12/30 11:58:03;;;;;;;7.03;2.00;;;;;;;;;;6281620;28;20276;-86
2022/12/30 12:01:15;;;;;;;12.40;2.47;;;;;;;;;;6301101;28;20261;-87
2022/12/30 12:04:41;;;;;;;4.77;1.77;;;;;;;;;;6309040;28;20574;-86
2022/12/30 12:07:49;;;;;;;4.40;1.53;;;;;;;;;;6291272;28;20416;-87
2022/12/30 12:10:56;;;;;;;6.37;1.60;;;;;;;;;;6306375;28;20301;-87
2022/12/30 12:14:08;;;;;;;4.83;1.73;;;;;;;;;;6288909;28;20263;-87
2022/12/30 12:17:26;;;;;;;3.73;1.80;;;;;;;;;;6289408;28;20265;-87
2022/12/30 12:20:49;;;;;;;5.80;1.80;;;;;;;;;;6294318;28;20281;-88
2022/12/30 12:24:21;;;;;;;1.57;1.57;;;;;;;;;;6273579;28;20278;-86
2022/12/30 12:27:27;;;;;;;4.87;1.77;;;;;;;;;;6306585;28;20290;-87
2022/12/30 12:30:44;;;;;;;7.77;1.80;;;;;;;;;;6273312;28;20585;-86
2022/12/30 12:33:54;;;;;;;5.63;2.17;;;;;;;;;;6290590;28;20280;-86
2022/12/30 12:37:10;;;;;;;3.40;1.50;;;;;;;;;;6289618;28;20265;-87
2022/12/30 12:40:36;;;;;;;3.50;1.70;;;;;;;;;;6307203;28;20362;-87
2022/12/30 12:43:52;;;;;;;1.63;1.50;;;;;;;;;;6290953;28;20266;-87
2022/12/30 12:47:03;;;;;;;5.90;1.40;;;;;;;;;;6293662;28;20258;-87
2022/12/30 12:50:31;;;;;;;3.47;1.37;;;;;;;;;;6275481;28;20274;-88
2022/12/30 12:54:04;;;;;;;4.00;1.40;;;;;;;;;;6291450;28;20277;-88
2022/12/30 12:57:33;;;;;;;3.97;1.30;;;;;;;;;;6250093;28;20275;-87
2022/12/30 13:00:47;;;;;;;4.83;1.50;;;;;;;;;;6287092;28;20559;-88
2022/12/30 13:04:04;;;;;;;1.43;1.30;;;;;;;;;;6290572;28;20302;-87
2022/12/30 13:07:15;;;;;;;4.73;1.50;;;;;;;;;;6290549;28;20275;-86
2022/12/30 13:10:36;;;;;;;1.50;1.40;;;;;;;;;;6292729;28;20267;-86
2022/12/30 13:14:05;;;;;;;1.50;1.40;;;;;;;;;;6267407;28;20300;-88
2022/12/30 13:17:17;;;;;;;2.80;1.43;;;;;;;;;;6250951;28;20441;-87
2022/12/30 13:20:27;;;;;;;4.33;1.50;;;;;;;;;;6253399;28;20267;-88
2022/12/30 13:23:41;;;;;;;4.60;1.40;;;;;;;;;;6252270;28;20273;-86
2022/12/30 13:26:47;;;;;;;1.43;1.30;;;;;;;;;;6252163;28;20272;-89
2022/12/30 13:29:56;;;;;;;4.93;1.40;;;;;;;;;;6249798;28;20199;-87
2022/12/30 13:33:08;;;;;;;1.27;1.10;;;;;;;;;;6266907;28;20319;-87
2022/12/30 13:36:19;;;;;;;4.33;1.40;;;;;;;;;;6265240;28;20292;-87
2022/12/30 13:39:30;;;;;;;2.87;1.30;;;;;;;;;;6232790;28;20271;-89
2022/12/30 13:43:09;;;;;;;1.10;1.10;;;;;;;;;;6249330;28;20358;-87
2022/12/30 13:46:20;;;;;;;4.00;1.40;;;;;;;;;;6209489;28;20279;-88
2022/12/30 13:49:34;;;;;;;1.67;1.47;;;;;;;;;;6232676;28;20271;-86
2022/12/30 13:52:46;;;;;;;1.30;1.30;;;;;;;;;;6259544;28;20283;-88
2022/12/30 13:55:53;;;;;;;3.23;1.70;;;;;;;;;;6244555;28;20245;-87
2022/12/30 13:59:00;;;;;;;3.00;1.17;;;;;;;;;;6276882;28;20227;-87
2022/12/30 14:02:48;;;;;;;2.93;1.13;;;;;;;;;;6277275;28;20223;-88
2022/12/30 14:05:59;;;;;;;1.33;1.23;;;;;;;;;;6243413;28;20331;-88
2022/12/30 14:09:17;;;;;;;3.93;1.20;;;;;;;;;;6234772;28;20279;-87
2022/12/30 14:12:33;;;;;;;4.43;1.10;;;;;;;;;;6230121;28;20283;-87
2022/12/30 14:15:56;;;;;;;2.67;1.13;;;;;;;;;;6262603;28;20275;-88
2022/12/30 14:19:03;;;;;;;2.33;1.50;;;;;;;;;;6262115;28;20283;-88
2022/12/30 14:22:11;;;;;;;2.03;1.10;;;;;;;;;;6230276;28;20268;-87
2022/12/30 14:25:37;;;;;;;2.57;1.33;;;;;;;;;;6246374;28;20547;-87
2022/12/30 14:28:44;;;;;;;1.20;1.20;;;;;;;;;;6261075;28;20280;-89
2022/12/30 14:31:53;;;;;;;4.27;1.20;;;;;;;;;;6245190;28;20532;-87
2022/12/30 14:35:00;;;;;;;5.17;1.60;;;;;;;;;;6244242;28;20279;-87
2022/12/30 14:38:28;;;;;;;3.57;1.30;;;;;;;;;;6245106;28;20279;-88
2022/12/30 14:41:41;;;;;;;2.27;1.30;;;;;;;;;;6241376;28;20227;-86
2022/12/30 14:44:51;;;;;;;3.70;1.50;;;;;;;;;;6241523;28;20231;-87
2022/12/30 14:47:59;;;;;;;4.50;1.40;;;;;;;;;;6276000;28;20254;-89
2022/12/30 14:51:04;;;;;;;2.40;1.10;;;;;;;;;;6260257;28;20243;-88
2022/12/30 14:54:15;;;;;;;4.33;1.60;;;;;;;;;;6260233;28;20218;-88
2022/12/30 14:57:24;;;;;;;1.33;1.20;;;;;;;;;;6259247;28;20243;-88
2022/12/30 15:00:31;;;;;;;2.83;1.30;;;;;;;;;;6257490;28;20265;-88
2022/12/30 15:03:38;;;;;;;2.67;1.30;;;;;;;;;;6254020;28;20302;-88
2022/12/30 15:06:45;;;;;;;3.23;1.30;;;;;;;;;;6289049;28;20286;-88
2022/12/30 15:09:52;;;;;;;1.23;1.20;;;;;;;;;;6272343;28;20293;-87
2022/12/30 15:13:09;;;;;;;1.37;1.27;;;;;;;;;;6272910;28;20305;-88
2022/12/30 15:16:18;;;;;;;6.00;2.63;;;;;;;;;;6289664;28;20279;-89
2022/12/30 15:19:26;;;;;;;3.93;2.40;;;;;;;;;;6287960;28;20282;-89
2022/12/30 15:22:37;;;;;;;2.47;1.60;;;;;;;;;;6290106;28;20285;-88
2022/12/30 15:25:43;;;;;;;1.93;1.33;;;;;;;;;;6297690;28;20323;-90
2022/12/30 15:28:49;;;;;;;3.53;1.50;;;;;;;;;;6296074;28;20254;-87
2022/12/30 15:31:57;;;;;;;2.10;1.60;;;;;;;;;;6320531;28;20312;-87
2022/12/30 15:35:10;;;;;;;4.33;1.50;;;;;;;;;;6314476;28;20258;-89
2022/12/30 15:38:18;;;;;;;2.03;1.30;;;;;;;;;;6295268;28;20261;-88
2022/12/30 15:41:30;;;;;;;1.50;1.40;;;;;;;;;;6298341;28;20275;-88
2022/12/30 15:44:36;;;;;;;1.33;1.23;;;;;;;;;;6305051;28;20265;-89
2022/12/30 15:47:43;;;;;;;1.43;1.33;;;;;;;;;;6306189;28;20244;-88
2022/12/30 15:50:53;;;;;;;2.40;1.27;;;;;;;;;;6325192;28;20228;-88
2022/12/30 15:54:01;;;;;;;1.60;1.50;;;;;;;;;;6313094;28;20244;-88
2022/12/30 15:57:18;;;;;;;2.53;1.70;;;;;;;;;;6313152;28;20218;-88
2022/12/30 16:00:25;;;;;;;2.97;1.53;;;;;;;;;;6312833;28;20234;-87
2022/12/30 16:03:31;;;;;;;2.07;1.90;;;;;;;;;;6329203;28;20254;-89
2022/12/30 16:06:40;;;;;;;3.37;1.40;;;;;;;;;;6312378;28;20233;-89
2022/12/30 16:09:46;;;;;;;2.07;1.60;;;;;;;;;;6312463;28;20237;-88
2022/12/30 16:12:55;;;;;;;2.17;1.60;;;;;;;;;;6329150;28;20241;-88
2022/12/30 16:16:06;;;;;;;2.87;1.67;;;;;;;;;;6311907;28;20238;-87
2022/12/30 16:19:14;;;;;;;1.50;1.40;;;;;;;;;;6312165;28;20226;-88
2022/12/30 16:22:24;;;;;;;2.60;1.53;;;;;;;;;;6328359;28;20222;-87
2022/12/30 16:25:34;;;;;;;4.33;1.50;;;;;;;;;;6312221;28;20280;-89
2022/12/30 16:28:43;;;;;;;1.50;1.40;;;;;;;;;;6327989;28;20224;-86
2022/12/30 16:31:49;;;;;;;1.50;1.40;;;;;;;;;;6310412;28;20225;-89
2022/12/30 16:34:57;;;;;;;3.40;1.57;;;;;;;;;;6318571;28;20281;-89
2022/12/30 16:38:06;;;;;;;4.13;1.40;;;;;;;;;;6296789;28;20257;-88
2022/12/30 16:41:20;;;;;;;1.33;1.30;;;;;;;;;;6297410;28;20264;-88
2022/12/30 16:44:26;;;;;;;2.37;1.30;;;;;;;;;;6296635;28;20265;-88
2022/12/30 16:47:31;;;;;;;3.20;1.30;;;;;;;;;;6296275;28;20562;-88
2022/12/30 16:50:43;;;;;;;5.13;1.40;;;;;;;;;;6296757;28;20442;-86
2022/12/30 16:53:52;;;;;;;1.20;1.20;;;;;;;;;;6295403;28;20293;-89
2022/12/30 16:56:58;;;;;;;6.10;1.33;;;;;;;;;;6279680;28;20274;-88
2022/12/30 17:00:05;;;;;;;1.20;1.20;;;;;;;;;;6297186;28;20276;-89
2022/12/30 17:03:31;;;;;;;2.93;1.40;;;;;;;;;;6286113;28;20297;-87
2022/12/30 17:06:37;;;;;;;1.30;1.30;;;;;;;;;;6311262;28;20252;-87
2022/12/30 17:13:12;;;;;;;1.57;1.47;;;;;;;;;;6296273;28;20288;-87
2022/12/30 17:16:20;;;;;;;1.47;1.37;;;;;;;;;;6312896;28;20264;-88
2022/12/30 17:19:27;;;;;;;1.40;1.30;;;;;;;;;;6296012;28;20275;-88
2022/12/30 17:22:33;;;;;;;1.60;1.40;;;;;;;;;;6295642;28;20577;-88
2022/12/30 17:25:40;;;;;;;3.97;1.70;;;;;;;;;;6295684;28;20580;-86
2022/12/30 17:28:46;;;;;;;1.57;1.47;;;;;;;;;;6312955;28;20452;-88
2022/12/30 17:31:52;;;;;;;1.23;1.23;;;;;;;;;;6312306;28;20261;-87
2022/12/30 17:34:57;;;;;;;3.40;1.57;;;;;;;;;;6299185;28;20278;-88
2022/12/30 17:38:03;;;;;;;1.90;1.80;;;;;;;;;;6316038;28;20507;-88
2022/12/30 17:41:11;;;;;;;4.97;3.70;;;;;;;;;;6311731;28;20279;-88
2022/12/30 17:44:17;;;;;;;10.57;6.53;;;;;;;;;;6311532;28;20572;-87
2022/12/30 17:47:22;;;;;;;13.17;6.57;;;;;;;;;;6278793;28;20276;-87
2022/12/30 17:50:28;;;;;;;13.83;7.50;;;;;;;;;;6295510;28;20279;-87
2022/12/30 17:53:34;;;;;;;9.03;4.60;;;;;;;;;;6295027;28;20365;-89
2022/12/30 17:56:41;;;;;;;8.77;5.00;;;;;;;;;;6294701;28;20273;-87
2022/12/30 17:59:47;;;;;;;2.87;2.57;;;;;;;;;;6294250;28;20271;-86
2022/12/30 18:02:52;;;;;;;3.23;2.93;;;;;;;;;;6278807;28;20275;-88
2022/12/30 18:05:58;;;;;;;4.67;2.43;;;;;;;;;;6263446;28;20278;-87
2022/12/30 18:09:04;;;;;;;2.30;2.03;;;;;;;;;;6262724;28;20347;-87
2022/12/30 18:12:15;;;;;;;3.53;2.20;;;;;;;;;;6247476;28;20289;-86
2022/12/30 18:15:21;;;;;;;1.93;1.90;;;;;;;;;;6249339;28;20283;-87
2022/12/30 18:18:27;;;;;;;3.73;2.27;;;;;;;;;;6266641;28;20289;-86
2022/12/30 18:21:32;;;;;;;2.50;2.30;;;;;;;;;;6276679;28;20474;-85
2022/12/30 18:24:38;;;;;;;2.63;2.43;;;;;;;;;;6292516;28;20254;-88
2022/12/30 18:27:45;;;;;;;3.23;2.07;;;;;;;;;;6256321;28;20318;-86
2022/12/30 18:30:51;;;;;;;5.70;2.40;;;;;;;;;;6288077;28;20277;-88
2022/12/30 18:33:58;;;;;;;3.40;1.70;;;;;;;;;;6270145;28;20296;-87
2022/12/30 18:37:03;;;;;;;2.90;1.90;;;;;;;;;;6265456;28;20255;-86
2022/12/30 18:40:11;;;;;;;2.37;1.80;;;;;;;;;;6276489;28;20227;-88
2022/12/30 18:43:18;;;;;;;2.33;1.87;;;;;;;;;;6276390;28;20264;-88
2022/12/30 18:46:25;;;;;;;4.40;1.50;;;;;;;;;;6293175;28;20238;-87
2022/12/30 18:49:30;;;;;;;1.90;1.70;;;;;;;;;;6275843;28;20268;-88
2022/12/30 18:52:36;;;;;;;1.70;1.60;;;;;;;;;;6277179;28;20279;-88
2022/12/30 18:55:41;;;;;;;3.33;1.73;;;;;;;;;;6277958;28;20281;-89
2022/12/30 18:58:48;;;;;;;2.70;2.00;;;;;;;;;;6276566;28;20448;-87
2022/12/30 19:01:54;;;;;;;2.10;1.70;;;;;;;;;;6261328;28;20275;-89
2022/12/30 19:05:00;;;;;;;3.17;1.70;;;;;;;;;;6277787;28;20294;-88
2022/12/30 19:08:06;;;;;;;5.17;1.70;;;;;;;;;;6285516;28;20265;-89
2022/12/30 19:11:27;;;;;;;4.93;1.57;;;;;;;;;;6282148;28;20267;-88
2022/12/30 19:14:34;;;;;;;4.50;1.50;;;;;;;;;;6243144;28;20285;-88
2022/12/30 19:17:40;;;;;;;3.00;1.73;;;;;;;;;;6266279;28;20271;-88
2022/12/30 19:20:45;;;;;;;9.83;1.80;;;;;;;;;;6267907;28;20253;-86
2022/12/30 19:23:52;;;;;;;5.80;2.17;;;;;;;;;;6250684;28;20259;-88
2022/12/30 19:26:58;;;;;;;4.43;2.10;;;;;;;;;;6277378;28;20277;-87
2022/12/30 19:30:07;;;;;;;3.80;2.43;;;;;;;;;;6243911;28;20275;-88
2022/12/30 19:33:15;;;;;;;6.17;2.00;;;;;;;;;;6270158;28;20262;-88
2022/12/30 19:36:22;;;;;;;3.57;1.90;;;;;;;;;;6243493;28;20315;-86
2022/12/30 19:39:28;;;;;;;4.17;2.03;;;;;;;;;;6244754;28;20280;-88
2022/12/30 19:42:34;;;;;;;2.03;1.73;;;;;;;;;;6244529;28;20282;-87
2022/12/30 19:45:42;;;;;;;3.93;1.80;;;;;;;;;;6244284;28;20264;-88
2022/12/30 19:48:48;;;;;;;2.83;2.07;;;;;;;;;;6244040;28;20269;-88
2022/12/30 19:51:54;;;;;;;11.00;2.40;;;;;;;;;;6228072;28;20320;-87
2022/12/30 19:55:00;;;;;;;8.77;1.90;;;;;;;;;;6244272;28;20284;-87
2022/12/30 19:58:07;;;;;;;5.03;1.80;;;;;;;;;;6259651;28;20276;-88
2022/12/30 20:01:17;;;;;;;4.67;1.97;;;;;;;;;;6252635;28;20277;-88
2022/12/30 20:04:25;;;;;;;11.00;2.20;;;;;;;;;;6261482;28;20302;-86
2022/12/30 20:07:30;;;;;;;4.30;2.03;;;;;;;;;;6292507;28;20270;-88
2022/12/30 20:10:37;;;;;;;6.27;1.87;;;;;;;;;;6278500;28;20272;-89
2022/12/30 20:14:03;;;;;;;8.00;2.10;;;;;;;;;;6298059;28;20269;-87
2022/12/30 20:17:13;;;;;;;6.33;2.00;;;;;;;;;;6293831;28;20306;-87
2022/12/30 20:20:20;;;;;;;7.90;2.10;;;;;;;;;;6321477;28;20259;-87
2022/12/30 20:23:25;;;;;;;3.50;1.73;;;;;;;;;;6282905;28;20275;-88
2022/12/30 20:26:33;;;;;;;6.33;2.23;;;;;;;;;;6297549;28;20270;-87
2022/12/30 20:29:38;;;;;;;7.70;2.00;;;;;;;;;;6296302;28;20283;-88
2022/12/30 20:32:46;;;;;;;12.13;2.53;;;;;;;;;;6280270;28;20273;-87
2022/12/30 20:35:53;;;;;;;3.93;2.30;;;;;;;;;;6296637;28;20286;-88
2022/12/30 20:39:00;;;;;;;7.27;2.47;;;;;;;;;;6296417;28;20277;-87
2022/12/30 20:42:06;;;;;;;7.10;1.80;;;;;;;;;;6297222;28;20267;-87